sensor_id;sensor_type;location;lat;lon;timestamp;P1;durP1;ratioP1;P2;durP2;ratioP2
76640;SDS011;65538;50.798;6.064;2023-02-02T00:01:16;22.23;;;4.43;;
76640;SDS011;65538;50.798;6.064;2023-02-02T00:03:42;25.13;;;3.78;;
76640;SDS011;65538;50.798;6.064;2023-02-02T00:06:07;29.17;;;5.77;;
76640;SDS011;65538;50.798;6.064;2023-02-02T00:08:32;20.23;;;4.13;;
76640;SDS011;65538;50.798;6.064;2023-02-02T00:10:59;18.73;;;3.92;;
76640;SDS011;65538;50.798;6.064;2023-02-02T00:13:25;16.97;;;4.50;;
76640;SDS011;65538;50.798;6.064;2023-02-02T00:15:51;16.90;;;2.17;;
76640;SDS011;65538;50.798;6.064;2023-02-02T00:18:16;21.50;;;4.57;;
76640;SDS011;65538;50.798;6.064;2023-02-02T00:20:42;10.73;;;3.33;;
76640;SDS011;65538;50.798;6.064;2023-02-02T00:23:08;24.88;;;4.65;;
76640;SDS011;65538;50.798;6.064;2023-02-02T00:25:33;19.83;;;3.77;;
76640;SDS011;65538;50.798;6.064;2023-02-02T00:27:59;17.97;;;5.70;;
76640;SDS011;65538;50.798;6.064;2023-02-02T00:30:24;22.47;;;4.30;;
76640;SDS011;65538;50.798;6.064;2023-02-02T00:32:49;21.23;;;4.83;;
76640;SDS011;65538;50.798;6.064;2023-02-02T00:35:16;20.85;;;4.45;;
76640;SDS011;65538;50.798;6.064;2023-02-02T00:37:41;17.67;;;3.72;;
76640;SDS011;65538;50.798;6.064;2023-02-02T00:40:07;21.93;;;5.40;;
76640;SDS011;65538;50.798;6.064;2023-02-02T00:42:32;23.42;;;4.35;;
76640;SDS011;65538;50.798;6.064;2023-02-02T00:44:57;17.73;;;4.70;;
76640;SDS011;65538;50.798;6.064;2023-02-02T00:47:45;22.60;;;5.05;;
76640;SDS011;65538;50.798;6.064;2023-02-02T00:50:12;19.90;;;4.30;;
76640;SDS011;65538;50.798;6.064;2023-02-02T00:52:37;24.48;;;4.85;;
76640;SDS011;65538;50.798;6.064;2023-02-02T00:55:03;20.77;;;4.17;;
76640;SDS011;65538;50.798;6.064;2023-02-02T00:57:28;20.42;;;4.22;;
76640;SDS011;65538;50.798;6.064;2023-02-02T00:59:53;19.00;;;4.23;;
76640;SDS011;65538;50.798;6.064;2023-02-02T01:02:18;18.83;;;4.13;;
76640;SDS011;65538;50.798;6.064;2023-02-02T01:04:44;18.27;;;4.67;;
76640;SDS011;65538;50.798;6.064;2023-02-02T01:07:09;14.53;;;2.27;;
76640;SDS011;65538;50.798;6.064;2023-02-02T01:09:34;16.00;;;4.03;;
76640;SDS011;65538;50.798;6.064;2023-02-02T01:11:59;18.20;;;3.33;;
76640;SDS011;65538;50.798;6.064;2023-02-02T01:14:24;21.23;;;4.00;;
76640;SDS011;65538;50.798;6.064;2023-02-02T01:16:50;18.47;;;4.30;;
76640;SDS011;65538;50.798;6.064;2023-02-02T01:19:15;24.00;;;5.03;;
76640;SDS011;65538;50.798;6.064;2023-02-02T01:21:41;18.20;;;4.50;;
76640;SDS011;65538;50.798;6.064;2023-02-02T01:24:06;25.17;;;4.13;;
76640;SDS011;65538;50.798;6.064;2023-02-02T01:26:31;18.57;;;4.80;;
76640;SDS011;65538;50.798;6.064;2023-02-02T01:28:57;26.43;;;4.57;;
76640;SDS011;65538;50.798;6.064;2023-02-02T01:31:22;29.07;;;5.50;;
76640;SDS011;65538;50.798;6.064;2023-02-02T01:33:47;17.77;;;4.27;;
76640;SDS011;65538;50.798;6.064;2023-02-02T01:36:14;17.45;;;3.65;;
76640;SDS011;65538;50.798;6.064;2023-02-02T01:38:40;20.73;;;3.90;;
76640;SDS011;65538;50.798;6.064;2023-02-02T01:41:06;10.80;;;2.83;;
76640;SDS011;65538;50.798;6.064;2023-02-02T01:46:10;24.48;;;4.10;;
76640;SDS011;65538;50.798;6.064;2023-02-02T01:48:36;12.25;;;3.00;;
76640;SDS011;65538;50.798;6.064;2023-02-02T01:51:03;15.98;;;3.60;;
76640;SDS011;65538;50.798;6.064;2023-02-02T01:53:29;8.20;;;2.35;;
76640;SDS011;65538;50.798;6.064;2023-02-02T01:55:54;13.10;;;2.63;;
76640;SDS011;65538;50.798;6.064;2023-02-02T02:00:45;16.10;;;3.80;;
76640;SDS011;65538;50.798;6.064;2023-02-02T02:03:11;13.13;;;2.63;;
76640;SDS011;65538;50.798;6.064;2023-02-02T02:05:40;21.75;;;3.45;;
76640;SDS011;65538;50.798;6.064;2023-02-02T02:08:17;12.63;;;2.65;;
76640;SDS011;65538;50.798;6.064;2023-02-02T02:10:42;17.05;;;2.92;;
76640;SDS011;65538;50.798;6.064;2023-02-02T02:13:08;23.00;;;3.20;;
76640;SDS011;65538;50.798;6.064;2023-02-02T02:15:36;14.65;;;3.08;;
76640;SDS011;65538;50.798;6.064;2023-02-02T02:18:42;23.80;;;3.75;;
76640;SDS011;65538;50.798;6.064;2023-02-02T02:29:06;19.40;;;3.43;;
76640;SDS011;65538;50.798;6.064;2023-02-02T02:34:05;13.73;;;2.97;;
76640;SDS011;65538;50.798;6.064;2023-02-02T02:39:03;23.25;;;3.72;;
76640;SDS011;65538;50.798;6.064;2023-02-02T02:41:31;13.18;;;3.13;;
76640;SDS011;65538;50.798;6.064;2023-02-02T02:44:03;21.60;;;3.65;;
76640;SDS011;65538;50.798;6.064;2023-02-02T02:46:28;17.05;;;4.15;;
76640;SDS011;65538;50.798;6.064;2023-02-02T02:48:57;13.35;;;2.72;;
76640;SDS011;65538;50.798;6.064;2023-02-02T02:54:52;14.52;;;2.83;;
76640;SDS011;65538;50.798;6.064;2023-02-02T03:02:02;18.30;;;3.53;;
76640;SDS011;65538;50.798;6.064;2023-02-02T03:07:25;16.45;;;3.80;;
76640;SDS011;65538;50.798;6.064;2023-02-02T03:09:52;18.08;;;4.22;;
76640;SDS011;65538;50.798;6.064;2023-02-02T03:12:18;19.63;;;3.58;;
76640;SDS011;65538;50.798;6.064;2023-02-02T03:14:44;14.43;;;2.67;;
76640;SDS011;65538;50.798;6.064;2023-02-02T03:17:09;21.37;;;4.23;;
76640;SDS011;65538;50.798;6.064;2023-02-02T03:19:34;12.90;;;2.80;;
76640;SDS011;65538;50.798;6.064;2023-02-02T03:21:59;10.03;;;2.03;;
76640;SDS011;65538;50.798;6.064;2023-02-02T03:24:24;22.17;;;4.23;;
76640;SDS011;65538;50.798;6.064;2023-02-02T03:26:50;24.30;;;3.47;;
76640;SDS011;65538;50.798;6.064;2023-02-02T03:29:15;14.70;;;3.05;;
76640;SDS011;65538;50.798;6.064;2023-02-02T03:31:41;17.52;;;3.22;;
76640;SDS011;65538;50.798;6.064;2023-02-02T03:34:06;15.13;;;3.37;;
76640;SDS011;65538;50.798;6.064;2023-02-02T03:36:31;19.83;;;3.60;;
76640;SDS011;65538;50.798;6.064;2023-02-02T03:38:57;14.83;;;2.73;;
76640;SDS011;65538;50.798;6.064;2023-02-02T03:41:22;16.37;;;3.00;;
76640;SDS011;65538;50.798;6.064;2023-02-02T03:43:47;20.02;;;4.25;;
76640;SDS011;65538;50.798;6.064;2023-02-02T03:46:12;18.53;;;4.20;;
76640;SDS011;65538;50.798;6.064;2023-02-02T03:48:38;17.00;;;2.50;;
76640;SDS011;65538;50.798;6.064;2023-02-02T03:51:07;14.37;;;3.03;;
76640;SDS011;65538;50.798;6.064;2023-02-02T03:53:32;18.58;;;2.40;;
76640;SDS011;65538;50.798;6.064;2023-02-02T03:55:58;16.67;;;2.87;;
76640;SDS011;65538;50.798;6.064;2023-02-02T03:58:23;18.70;;;2.93;;
76640;SDS011;65538;50.798;6.064;2023-02-02T04:00:48;23.27;;;3.63;;
76640;SDS011;65538;50.798;6.064;2023-02-02T04:03:13;15.47;;;2.73;;
76640;SDS011;65538;50.798;6.064;2023-02-02T04:05:38;12.73;;;2.63;;
76640;SDS011;65538;50.798;6.064;2023-02-02T04:08:04;20.53;;;3.00;;
76640;SDS011;65538;50.798;6.064;2023-02-02T04:10:29;16.43;;;3.37;;
76640;SDS011;65538;50.798;6.064;2023-02-02T04:12:54;19.80;;;3.00;;
76640;SDS011;65538;50.798;6.064;2023-02-02T04:15:19;14.40;;;2.50;;
76640;SDS011;65538;50.798;6.064;2023-02-02T04:17:45;15.53;;;3.40;;
76640;SDS011;65538;50.798;6.064;2023-02-02T04:20:10;19.20;;;3.63;;
76640;SDS011;65538;50.798;6.064;2023-02-02T04:22:35;21.65;;;3.03;;
76640;SDS011;65538;50.798;6.064;2023-02-02T04:25:00;12.13;;;3.33;;
76640;SDS011;65538;50.798;6.064;2023-02-02T04:27:26;14.97;;;3.43;;
76640;SDS011;65538;50.798;6.064;2023-02-02T04:29:51;13.83;;;3.43;;
76640;SDS011;65538;50.798;6.064;2023-02-02T04:32:16;10.97;;;3.37;;
76640;SDS011;65538;50.798;6.064;2023-02-02T04:34:42;20.30;;;3.78;;
76640;SDS011;65538;50.798;6.064;2023-02-02T04:37:08;17.75;;;4.03;;
76640;SDS011;65538;50.798;6.064;2023-02-02T04:39:33;19.95;;;3.83;;
76640;SDS011;65538;50.798;6.064;2023-02-02T04:41:58;11.77;;;2.20;;
76640;SDS011;65538;50.798;6.064;2023-02-02T04:44:24;16.17;;;3.10;;
76640;SDS011;65538;50.798;6.064;2023-02-02T04:49:43;24.48;;;4.38;;
76640;SDS011;65538;50.798;6.064;2023-02-02T04:52:09;15.20;;;3.50;;
76640;SDS011;65538;50.798;6.064;2023-02-02T04:54:35;21.17;;;4.22;;
76640;SDS011;65538;50.798;6.064;2023-02-02T04:57:00;21.77;;;4.27;;
76640;SDS011;65538;50.798;6.064;2023-02-02T04:59:26;15.80;;;3.43;;
76640;SDS011;65538;50.798;6.064;2023-02-02T05:01:52;22.33;;;4.13;;
76640;SDS011;65538;50.798;6.064;2023-02-02T05:04:17;16.77;;;2.53;;
76640;SDS011;65538;50.798;6.064;2023-02-02T05:06:42;14.63;;;3.50;;
76640;SDS011;65538;50.798;6.064;2023-02-02T05:09:07;15.90;;;2.80;;
76640;SDS011;65538;50.798;6.064;2023-02-02T05:11:33;23.23;;;4.17;;
76640;SDS011;65538;50.798;6.064;2023-02-02T05:13:58;13.57;;;2.83;;
76640;SDS011;65538;50.798;6.064;2023-02-02T05:16:23;16.90;;;3.63;;
76640;SDS011;65538;50.798;6.064;2023-02-02T05:18:49;17.87;;;3.93;;
76640;SDS011;65538;50.798;6.064;2023-02-02T05:21:15;14.40;;;4.47;;
76640;SDS011;65538;50.798;6.064;2023-02-02T05:23:40;22.90;;;4.30;;
76640;SDS011;65538;50.798;6.064;2023-02-02T05:26:05;15.90;;;2.80;;
76640;SDS011;65538;50.798;6.064;2023-02-02T05:28:30;18.17;;;3.10;;
76640;SDS011;65538;50.798;6.064;2023-02-02T05:30:56;12.33;;;2.90;;
76640;SDS011;65538;50.798;6.064;2023-02-02T05:33:21;22.48;;;3.53;;
76640;SDS011;65538;50.798;6.064;2023-02-02T05:35:47;18.40;;;2.90;;
76640;SDS011;65538;50.798;6.064;2023-02-02T05:38:12;15.35;;;2.97;;
76640;SDS011;65538;50.798;6.064;2023-02-02T05:40:38;12.03;;;3.13;;
76640;SDS011;65538;50.798;6.064;2023-02-02T05:43:03;21.70;;;5.40;;
76640;SDS011;65538;50.798;6.064;2023-02-02T05:45:28;15.77;;;3.47;;
76640;SDS011;65538;50.798;6.064;2023-02-02T05:47:53;15.20;;;3.73;;
76640;SDS011;65538;50.798;6.064;2023-02-02T05:50:20;13.88;;;3.33;;
76640;SDS011;65538;50.798;6.064;2023-02-02T05:52:45;13.85;;;3.58;;
76640;SDS011;65538;50.798;6.064;2023-02-02T05:55:10;19.42;;;4.13;;
76640;SDS011;65538;50.798;6.064;2023-02-02T05:57:36;20.70;;;4.80;;
76640;SDS011;65538;50.798;6.064;2023-02-02T06:00:01;16.23;;;4.17;;
76640;SDS011;65538;50.798;6.064;2023-02-02T06:02:27;18.95;;;4.00;;
76640;SDS011;65538;50.798;6.064;2023-02-02T06:04:52;12.90;;;3.90;;
76640;SDS011;65538;50.798;6.064;2023-02-02T06:07:17;25.70;;;6.30;;
76640;SDS011;65538;50.798;6.064;2023-02-02T06:09:42;17.17;;;4.60;;
76640;SDS011;65538;50.798;6.064;2023-02-02T06:12:08;24.42;;;6.13;;
76640;SDS011;65538;50.798;6.064;2023-02-02T06:14:34;20.97;;;5.23;;
76640;SDS011;65538;50.798;6.064;2023-02-02T06:16:59;27.03;;;6.87;;
76640;SDS011;65538;50.798;6.064;2023-02-02T06:19:24;20.23;;;5.27;;
76640;SDS011;65538;50.798;6.064;2023-02-02T06:21:49;24.00;;;4.73;;
76640;SDS011;65538;50.798;6.064;2023-02-02T06:24:15;20.20;;;5.00;;
76640;SDS011;65538;50.798;6.064;2023-02-02T06:26:40;16.40;;;4.33;;
76640;SDS011;65538;50.798;6.064;2023-02-02T06:29:05;18.00;;;3.70;;
76640;SDS011;65538;50.798;6.064;2023-02-02T06:31:31;16.77;;;3.78;;
76640;SDS011;65538;50.798;6.064;2023-02-02T06:33:57;12.65;;;2.92;;
76640;SDS011;65538;50.798;6.064;2023-02-02T06:36:24;14.70;;;3.63;;
76640;SDS011;65538;50.798;6.064;2023-02-02T06:38:50;28.15;;;5.93;;
76640;SDS011;65538;50.798;6.064;2023-02-02T06:41:16;18.35;;;4.25;;
76640;SDS011;65538;50.798;6.064;2023-02-02T06:43:41;7.80;;;2.20;;
76640;SDS011;65538;50.798;6.064;2023-02-02T06:46:06;16.07;;;2.53;;
76640;SDS011;65538;50.798;6.064;2023-02-02T06:48:31;13.03;;;3.20;;
76640;SDS011;65538;50.798;6.064;2023-02-02T06:50:57;20.57;;;3.57;;
76640;SDS011;65538;50.798;6.064;2023-02-02T06:53:23;25.25;;;5.57;;
76640;SDS011;65538;50.798;6.064;2023-02-02T06:55:55;17.13;;;4.83;;
76640;SDS011;65538;50.798;6.064;2023-02-02T06:58:21;26.27;;;4.93;;
76640;SDS011;65538;50.798;6.064;2023-02-02T07:00:46;13.90;;;3.80;;
76640;SDS011;65538;50.798;6.064;2023-02-02T07:03:12;19.98;;;5.38;;
76640;SDS011;65538;50.798;6.064;2023-02-02T07:05:37;16.13;;;4.20;;
76640;SDS011;65538;50.798;6.064;2023-02-02T07:08:03;15.13;;;4.30;;
76640;SDS011;65538;50.798;6.064;2023-02-02T07:10:28;17.75;;;5.15;;
76640;SDS011;65538;50.798;6.064;2023-02-02T07:12:53;15.87;;;4.87;;
76640;SDS011;65538;50.798;6.064;2023-02-02T07:15:19;18.77;;;5.50;;
76640;SDS011;65538;50.798;6.064;2023-02-02T07:17:44;16.93;;;4.40;;
76640;SDS011;65538;50.798;6.064;2023-02-02T07:20:09;20.80;;;5.50;;
76640;SDS011;65538;50.798;6.064;2023-02-02T07:22:37;20.30;;;6.10;;
76640;SDS011;65538;50.798;6.064;2023-02-02T07:25:02;19.40;;;6.40;;
76640;SDS011;65538;50.798;6.064;2023-02-02T07:27:27;21.80;;;5.53;;
76640;SDS011;65538;50.798;6.064;2023-02-02T07:29:53;21.97;;;6.57;;
76640;SDS011;65538;50.798;6.064;2023-02-02T07:32:18;18.00;;;5.23;;
76640;SDS011;65538;50.798;6.064;2023-02-02T07:34:43;22.37;;;6.73;;
76640;SDS011;65538;50.798;6.064;2023-02-02T07:37:08;25.57;;;6.90;;
76640;SDS011;65538;50.798;6.064;2023-02-02T07:39:34;19.85;;;6.57;;
76640;SDS011;65538;50.798;6.064;2023-02-02T07:41:59;13.63;;;5.70;;
76640;SDS011;65538;50.798;6.064;2023-02-02T07:44:24;12.73;;;4.30;;
76640;SDS011;65538;50.798;6.064;2023-02-02T07:46:49;24.20;;;7.97;;
76640;SDS011;65538;50.798;6.064;2023-02-02T07:49:15;23.87;;;6.90;;
76640;SDS011;65538;50.798;6.064;2023-02-02T07:51:41;24.35;;;7.35;;
76640;SDS011;65538;50.798;6.064;2023-02-02T07:54:06;17.95;;;7.28;;
76640;SDS011;65538;50.798;6.064;2023-02-02T07:56:31;23.40;;;6.60;;
76640;SDS011;65538;50.798;6.064;2023-02-02T07:58:57;25.97;;;8.53;;
76640;SDS011;65538;50.798;6.064;2023-02-02T08:01:22;18.15;;;6.25;;
76640;SDS011;65538;50.798;6.064;2023-02-02T08:03:50;11.20;;;5.35;;
76640;SDS011;65538;50.798;6.064;2023-02-02T08:06:22;30.40;;;11.02;;
76640;SDS011;65538;50.798;6.064;2023-02-02T08:08:48;19.08;;;7.70;;
76640;SDS011;65538;50.798;6.064;2023-02-02T08:11:14;19.20;;;6.93;;
76640;SDS011;65538;50.798;6.064;2023-02-02T08:13:40;21.08;;;5.85;;
76640;SDS011;65538;50.798;6.064;2023-02-02T08:16:06;19.73;;;7.45;;
76640;SDS011;65538;50.798;6.064;2023-02-02T08:18:34;22.73;;;6.35;;
76640;SDS011;65538;50.798;6.064;2023-02-02T08:21:00;26.73;;;7.75;;
76640;SDS011;65538;50.798;6.064;2023-02-02T08:23:25;20.75;;;8.15;;
76640;SDS011;65538;50.798;6.064;2023-02-02T08:25:51;19.58;;;7.43;;
76640;SDS011;65538;50.798;6.064;2023-02-02T08:28:17;20.38;;;5.53;;
76640;SDS011;65538;50.798;6.064;2023-02-02T08:30:42;24.25;;;8.05;;
76640;SDS011;65538;50.798;6.064;2023-02-02T08:33:08;28.77;;;7.57;;
76640;SDS011;65538;50.798;6.064;2023-02-02T08:35:33;23.33;;;9.48;;
76640;SDS011;65538;50.798;6.064;2023-02-02T08:37:58;24.43;;;7.77;;
76640;SDS011;65538;50.798;6.064;2023-02-02T08:40:27;13.93;;;5.35;;
76640;SDS011;65538;50.798;6.064;2023-02-02T08:42:52;16.80;;;6.50;;
76640;SDS011;65538;50.798;6.064;2023-02-02T08:45:18;23.70;;;9.43;;
76640;SDS011;65538;50.798;6.064;2023-02-02T08:47:43;15.87;;;5.70;;
76640;SDS011;65538;50.798;6.064;2023-02-02T08:50:09;18.20;;;6.80;;
76640;SDS011;65538;50.798;6.064;2023-02-02T08:52:34;15.88;;;5.75;;
76640;SDS011;65538;50.798;6.064;2023-02-02T08:54:59;24.03;;;6.83;;
76640;SDS011;65538;50.798;6.064;2023-02-02T08:57:26;14.20;;;5.70;;
76640;SDS011;65538;50.798;6.064;2023-02-02T08:59:51;19.40;;;6.22;;
76640;SDS011;65538;50.798;6.064;2023-02-02T09:02:16;20.30;;;6.33;;
76640;SDS011;65538;50.798;6.064;2023-02-02T09:04:42;21.77;;;7.38;;
76640;SDS011;65538;50.798;6.064;2023-02-02T09:07:09;19.48;;;7.13;;
76640;SDS011;65538;50.798;6.064;2023-02-02T09:09:34;20.77;;;6.97;;
76640;SDS011;65538;50.798;6.064;2023-02-02T09:11:59;18.43;;;6.93;;
76640;SDS011;65538;50.798;6.064;2023-02-02T09:14:25;21.00;;;6.27;;
76640;SDS011;65538;50.798;6.064;2023-02-02T09:16:50;25.80;;;8.43;;
76640;SDS011;65538;50.798;6.064;2023-02-02T09:19:15;7.97;;;3.90;;
76640;SDS011;65538;50.798;6.064;2023-02-02T09:21:41;21.55;;;6.38;;
76640;SDS011;65538;50.798;6.064;2023-02-02T09:24:07;15.63;;;6.07;;
76640;SDS011;65538;50.798;6.064;2023-02-02T09:26:32;19.73;;;6.50;;
76640;SDS011;65538;50.798;6.064;2023-02-02T09:28:58;24.63;;;6.97;;
76640;SDS011;65538;50.798;6.064;2023-02-02T09:31:26;15.43;;;6.90;;
76640;SDS011;65538;50.798;6.064;2023-02-02T09:33:52;21.52;;;7.28;;
76640;SDS011;65538;50.798;6.064;2023-02-02T09:36:18;29.33;;;7.17;;
76640;SDS011;65538;50.798;6.064;2023-02-02T09:38:44;24.88;;;6.80;;
76640;SDS011;65538;50.798;6.064;2023-02-02T09:41:13;18.23;;;7.97;;
76640;SDS011;65538;50.798;6.064;2023-02-02T09:46:58;17.60;;;6.27;;
76640;SDS011;65538;50.798;6.064;2023-02-02T09:49:01;28.02;;;7.60;;
76640;SDS011;65538;50.798;6.064;2023-02-02T09:51:31;20.10;;;7.85;;
76640;SDS011;65538;50.798;6.064;2023-02-02T09:54:16;17.38;;;5.95;;
76640;SDS011;65538;50.798;6.064;2023-02-02T09:56:42;15.60;;;5.70;;
76640;SDS011;65538;50.798;6.064;2023-02-02T09:59:51;21.05;;;6.13;;
76640;SDS011;65538;50.798;6.064;2023-02-02T10:02:00;13.35;;;4.80;;
76640;SDS011;65538;50.798;6.064;2023-02-02T10:04:37;22.05;;;7.03;;
76640;SDS011;65538;50.798;6.064;2023-02-02T10:07:08;20.35;;;6.30;;
76640;SDS011;65538;50.798;6.064;2023-02-02T10:12:18;15.32;;;5.07;;
76640;SDS011;65538;50.798;6.064;2023-02-02T10:14:55;20.90;;;6.97;;
76640;SDS011;65538;50.798;6.064;2023-02-02T10:19:48;16.73;;;5.17;;
76640;SDS011;65538;50.798;6.064;2023-02-02T10:22:18;14.20;;;4.80;;
76640;SDS011;65538;50.798;6.064;2023-02-02T10:24:44;12.93;;;4.95;;
76640;SDS011;65538;50.798;6.064;2023-02-02T10:27:12;19.48;;;6.35;;
76640;SDS011;65538;50.798;6.064;2023-02-02T10:42:36;15.87;;;5.23;;
76640;SDS011;65538;50.798;6.064;2023-02-02T10:45:13;17.63;;;5.38;;
76640;SDS011;65538;50.798;6.064;2023-02-02T10:47:39;13.90;;;5.78;;
76640;SDS011;65538;50.798;6.064;2023-02-02T10:50:17;14.47;;;4.23;;
76640;SDS011;65538;50.798;6.064;2023-02-02T10:52:46;17.10;;;4.82;;
76640;SDS011;65538;50.798;6.064;2023-02-02T11:00:13;12.40;;;3.07;;
76640;SDS011;65538;50.798;6.064;2023-02-02T11:02:39;15.32;;;4.80;;
76640;SDS011;65538;50.798;6.064;2023-02-02T11:05:04;8.90;;;3.60;;
76640;SDS011;65538;50.798;6.064;2023-02-02T11:07:48;10.45;;;4.10;;
76640;SDS011;65538;50.798;6.064;2023-02-02T11:10:15;13.30;;;3.30;;
76640;SDS011;65538;50.798;6.064;2023-02-02T11:12:41;12.10;;;4.23;;
76640;SDS011;65538;50.798;6.064;2023-02-02T11:15:22;14.70;;;4.32;;
76640;SDS011;65538;50.798;6.064;2023-02-02T11:17:49;12.32;;;3.20;;
76640;SDS011;65538;50.798;6.064;2023-02-02T11:20:31;8.20;;;3.10;;
76640;SDS011;65538;50.798;6.064;2023-02-02T11:23:00;11.90;;;3.28;;
76640;SDS011;65538;50.798;6.064;2023-02-02T11:27:51;17.40;;;4.40;;
76640;SDS011;65538;50.798;6.064;2023-02-02T11:30:27;16.63;;;4.50;;
76640;SDS011;65538;50.798;6.064;2023-02-02T11:32:54;17.48;;;4.75;;
76640;SDS011;65538;50.798;6.064;2023-02-02T11:35:26;14.45;;;4.05;;
76640;SDS011;65538;50.798;6.064;2023-02-02T11:37:58;12.82;;;4.00;;
76640;SDS011;65538;50.798;6.064;2023-02-02T11:42:54;18.55;;;4.10;;
76640;SDS011;65538;50.798;6.064;2023-02-02T11:45:31;16.85;;;4.90;;
76640;SDS011;65538;50.798;6.064;2023-02-02T11:48:05;18.73;;;4.22;;
76640;SDS011;65538;50.798;6.064;2023-02-02T11:50:31;19.77;;;4.85;;
76640;SDS011;65538;50.798;6.064;2023-02-02T11:52:57;13.13;;;3.40;;
76640;SDS011;65538;50.798;6.064;2023-02-02T11:55:26;14.00;;;3.33;;
76640;SDS011;65538;50.798;6.064;2023-02-02T12:00:49;20.63;;;3.90;;
76640;SDS011;65538;50.798;6.064;2023-02-02T12:03:21;11.15;;;2.92;;
76640;SDS011;65538;50.798;6.064;2023-02-02T12:05:47;11.95;;;3.03;;
76640;SDS011;65538;50.798;6.064;2023-02-02T12:08:14;12.07;;;2.97;;
76640;SDS011;65538;50.798;6.064;2023-02-02T12:13:38;14.87;;;3.13;;
76640;SDS011;65538;50.798;6.064;2023-02-02T12:21:15;9.75;;;2.75;;
76640;SDS011;65538;50.798;6.064;2023-02-02T12:29:41;8.32;;;2.13;;
76640;SDS011;65538;50.798;6.064;2023-02-02T12:32:10;11.75;;;3.53;;
76640;SDS011;65538;50.798;6.064;2023-02-02T12:52:45;16.65;;;3.47;;
76640;SDS011;65538;50.798;6.064;2023-02-02T12:55:21;16.88;;;4.03;;
76640;SDS011;65538;50.798;6.064;2023-02-02T13:00:51;13.50;;;2.90;;
76640;SDS011;65538;50.798;6.064;2023-02-02T13:10:36;12.07;;;3.05;;
76640;SDS011;65538;50.798;6.064;2023-02-02T13:13:08;9.57;;;2.60;;
76640;SDS011;65538;50.798;6.064;2023-02-02T13:15:34;10.07;;;2.53;;
76640;SDS011;65538;50.798;6.064;2023-02-02T13:18:03;10.82;;;2.40;;
76640;SDS011;65538;50.798;6.064;2023-02-02T13:22:56;13.23;;;2.63;;
76640;SDS011;65538;50.798;6.064;2023-02-02T13:25:29;10.20;;;2.42;;
76640;SDS011;65538;50.798;6.064;2023-02-02T13:27:57;10.02;;;2.33;;
76640;SDS011;65538;50.798;6.064;2023-02-02T13:30:35;11.82;;;2.13;;
76640;SDS011;65538;50.798;6.064;2023-02-02T13:33:22;5.78;;;2.10;;
76640;SDS011;65538;50.798;6.064;2023-02-02T13:35:50;11.68;;;2.72;;
76640;SDS011;65538;50.798;6.064;2023-02-02T13:40:47;9.70;;;2.33;;
76640;SDS011;65538;50.798;6.064;2023-02-02T13:45:45;11.02;;;2.47;;
76640;SDS011;65538;50.798;6.064;2023-02-02T13:48:17;9.18;;;2.58;;
76640;SDS011;65538;50.798;6.064;2023-02-02T13:50:46;5.30;;;2.13;;
76640;SDS011;65538;50.798;6.064;2023-02-02T13:53:18;6.10;;;1.75;;
76640;SDS011;65538;50.798;6.064;2023-02-02T13:55:55;12.15;;;2.97;;
76640;SDS011;65538;50.798;6.064;2023-02-02T14:01:29;8.77;;;1.95;;
76640;SDS011;65538;50.798;6.064;2023-02-02T14:03:55;15.98;;;3.33;;
76640;SDS011;65538;50.798;6.064;2023-02-02T14:06:22;11.98;;;2.47;;
76640;SDS011;65538;50.798;6.064;2023-02-02T14:08:55;11.65;;;2.17;;
76640;SDS011;65538;50.798;6.064;2023-02-02T14:11:26;13.07;;;3.42;;
76640;SDS011;65538;50.798;6.064;2023-02-02T14:14:25;14.25;;;2.75;;
76640;SDS011;65538;50.798;6.064;2023-02-02T14:16:56;8.63;;;2.60;;
76640;SDS011;65538;50.798;6.064;2023-02-02T14:26:51;7.72;;;2.08;;
76640;SDS011;65538;50.798;6.064;2023-02-02T14:31:58;14.52;;;3.45;;
76640;SDS011;65538;50.798;6.064;2023-02-02T14:36:53;6.93;;;2.13;;
76640;SDS011;65538;50.798;6.064;2023-02-02T14:39:23;10.60;;;2.67;;
76640;SDS011;65538;50.798;6.064;2023-02-02T14:42:02;16.73;;;2.45;;
76640;SDS011;65538;50.798;6.064;2023-02-02T14:50:25;8.45;;;2.83;;
76640;SDS011;65538;50.798;6.064;2023-02-02T14:52:58;6.85;;;2.40;;
76640;SDS011;65538;50.798;6.064;2023-02-02T14:55:24;11.35;;;2.50;;
76640;SDS011;65538;50.798;6.064;2023-02-02T14:57:54;12.02;;;2.92;;
76640;SDS011;65538;50.798;6.064;2023-02-02T15:00:20;12.25;;;2.88;;
76640;SDS011;65538;50.798;6.064;2023-02-02T15:02:47;7.95;;;2.25;;
76640;SDS011;65538;50.798;6.064;2023-02-02T15:13:12;9.95;;;2.22;;
76640;SDS011;65538;50.798;6.064;2023-02-02T15:15:39;5.75;;;2.00;;
76640;SDS011;65538;50.798;6.064;2023-02-02T15:18:23;5.75;;;2.05;;
76640;SDS011;65538;50.798;6.064;2023-02-02T15:20:51;9.13;;;2.30;;
76640;SDS011;65538;50.798;6.064;2023-02-02T15:23:33;6.47;;;2.33;;
76640;SDS011;65538;50.798;6.064;2023-02-02T15:26:20;9.70;;;2.42;;
76640;SDS011;65538;50.798;6.064;2023-02-02T15:28:58;12.27;;;2.70;;
76640;SDS011;65538;50.798;6.064;2023-02-02T15:33:56;9.35;;;2.22;;
76640;SDS011;65538;50.798;6.064;2023-02-02T15:36:27;9.57;;;2.20;;
76640;SDS011;65538;50.798;6.064;2023-02-02T15:38:56;12.48;;;2.67;;
76640;SDS011;65538;50.798;6.064;2023-02-02T15:41:23;8.18;;;2.10;;
76640;SDS011;65538;50.798;6.064;2023-02-02T15:43:49;7.00;;;2.28;;
76640;SDS011;65538;50.798;6.064;2023-02-02T15:46:16;7.72;;;2.10;;
76640;SDS011;65538;50.798;6.064;2023-02-02T15:49:12;6.95;;;2.35;;
76640;SDS011;65538;50.798;6.064;2023-02-02T15:51:33;10.77;;;2.38;;
76640;SDS011;65538;50.798;6.064;2023-02-02T15:53:58;7.33;;;2.63;;
76640;SDS011;65538;50.798;6.064;2023-02-02T15:58:52;12.57;;;2.60;;
76640;SDS011;65538;50.798;6.064;2023-02-02T16:03:49;4.85;;;1.90;;
76640;SDS011;65538;50.798;6.064;2023-02-02T16:06:17;6.80;;;2.10;;
76640;SDS011;65538;50.798;6.064;2023-02-02T16:08:42;9.40;;;2.35;;
76640;SDS011;65538;50.798;6.064;2023-02-02T16:11:12;11.20;;;1.83;;
76640;SDS011;65538;50.798;6.064;2023-02-02T16:13:39;10.15;;;2.20;;
76640;SDS011;65538;50.798;6.064;2023-02-02T16:16:23;6.32;;;2.22;;
76640;SDS011;65538;50.798;6.064;2023-02-02T16:19:00;8.95;;;2.22;;
76640;SDS011;65538;50.798;6.064;2023-02-02T16:21:25;5.95;;;2.05;;
76640;SDS011;65538;50.798;6.064;2023-02-02T16:23:50;9.27;;;2.17;;
76640;SDS011;65538;50.798;6.064;2023-02-02T16:26:16;8.95;;;1.98;;
76640;SDS011;65538;50.798;6.064;2023-02-02T16:28:43;7.13;;;2.03;;
76640;SDS011;65538;50.798;6.064;2023-02-02T16:31:09;12.90;;;2.70;;
76640;SDS011;65538;50.798;6.064;2023-02-02T16:33:36;6.55;;;2.17;;
76640;SDS011;65538;50.798;6.064;2023-02-02T16:36:03;11.57;;;2.65;;
76640;SDS011;65538;50.798;6.064;2023-02-02T16:38:39;10.98;;;2.75;;
76640;SDS011;65538;50.798;6.064;2023-02-02T16:43:29;5.33;;;1.83;;
76640;SDS011;65538;50.798;6.064;2023-02-02T16:45:57;7.68;;;2.92;;
76640;SDS011;65538;50.798;6.064;2023-02-02T16:50:48;5.93;;;2.07;;
76640;SDS011;65538;50.798;6.064;2023-02-02T16:53:26;7.82;;;2.22;;
76640;SDS011;65538;50.798;6.064;2023-02-02T16:55:52;5.28;;;1.73;;
76640;SDS011;65538;50.798;6.064;2023-02-02T16:58:19;9.27;;;2.78;;
76640;SDS011;65538;50.798;6.064;2023-02-02T17:00:56;11.82;;;2.63;;
76640;SDS011;65538;50.798;6.064;2023-02-02T17:03:22;8.57;;;3.22;;
76640;SDS011;65538;50.798;6.064;2023-02-02T17:05:48;7.22;;;2.50;;
76640;SDS011;65538;50.798;6.064;2023-02-02T17:08:23;7.80;;;2.20;;
76640;SDS011;65538;50.798;6.064;2023-02-02T17:10:49;8.45;;;2.15;;
76640;SDS011;65538;50.798;6.064;2023-02-02T17:15:50;8.37;;;2.90;;
76640;SDS011;65538;50.798;6.064;2023-02-02T17:18:15;12.52;;;3.42;;